Time;durP1;ratioP1;P1;durP2;ratioP2;P2;SDS_P1;SDS_P2;PMS_P1;PMS_P2;Temp;Humidity;BMP_temperature;BMP_pressure;BME280_temperature;BME280_humidity;BME280_pressure;Samples;Min_cycle;Max_cycle;Signal;HPM_P1;HPM_P2
2022/11/23 00:01:29;;;;;;;3.08;1.40;;;6.30;99.90;;;;;;5006548;28;20045;-69
2022/11/23 00:03:59;;;;;;;1.65;1.10;;;6.40;99.90;;;;;;5014240;28;20528;-70
2022/11/23 00:06:25;;;;;;;11.57;1.70;;;6.30;99.90;;;;;;5005385;28;20087;-70
2022/11/23 00:08:52;;;;;;;1.63;1.05;;;6.40;99.90;;;;;;5014439;28;20033;-70
2022/11/23 00:11:20;;;;;;;2.20;1.20;;;6.40;99.90;;;;;;5006367;28;20032;-70
2022/11/23 00:13:46;;;;;;;12.27;1.98;;;6.40;99.90;;;;;;5014199;28;20105;-70
2022/11/23 00:16:16;;;;;;;1.55;1.00;;;6.50;99.90;;;;;;5006619;28;20034;-70
2022/11/23 00:18:43;;;;;;;1.48;1.10;;;6.50;99.90;;;;;;5013006;28;20509;-69
2022/11/23 00:21:12;;;;;;;3.60;1.25;;;6.50;99.90;;;;;;5005327;28;20038;-70
2022/11/23 00:23:38;;;;;;;6.80;1.50;;;6.40;99.90;;;;;;5013797;28;20066;-70
2022/11/23 00:26:05;;;;;;;2.25;1.23;;;6.40;99.90;;;;;;5006084;28;20072;-70
2022/11/23 00:28:31;;;;;;;6.07;1.77;;;6.40;99.90;;;;;;5014026;28;20029;-70
2022/11/23 00:30:57;;;;;;;3.40;1.23;;;6.30;99.90;;;;;;5006044;28;20402;-70
2022/11/23 00:33:23;;;;;;;1.88;1.00;;;6.30;99.90;;;;;;5013718;28;20044;-70
2022/11/23 00:36:05;;;;;;;1.85;1.42;;;6.30;99.90;;;;;;4997668;28;20035;-70
2022/11/23 00:38:32;;;;;;;4.93;1.92;;;6.30;99.90;;;;;;5013886;28;20026;-70
2022/11/23 00:41:00;;;;;;;7.05;2.65;;;6.30;99.90;;;;;;5004118;28;20037;-70
2022/11/23 00:43:27;;;;;;;2.95;0.98;;;6.40;99.90;;;;;;5013349;28;20113;-70
2022/11/23 00:46:19;;;;;;;8.00;0.98;;;6.40;99.90;;;;;;5005680;28;20030;-70
2022/11/23 00:48:48;;;;;;;3.42;1.38;;;6.50;99.90;;;;;;5013875;28;20379;-70
2022/11/23 00:51:18;;;;;;;1.52;0.50;;;6.60;99.90;;;;;;5005805;28;20080;-70
2022/11/23 00:53:44;;;;;;;0.90;0.73;;;6.60;99.90;;;;;;5013337;28;20478;-70
2022/11/23 00:56:10;;;;;;;0.85;0.63;;;6.70;99.90;;;;;;4997890;28;20044;-70
2022/11/23 00:58:39;;;;;;;24.48;1.50;;;6.70;99.90;;;;;;5012052;28;20030;-70
2022/11/23 01:01:11;;;;;;;8.93;1.70;;;6.60;99.90;;;;;;5004307;28;20120;-70
2022/11/23 01:03:45;;;;;;;2.60;1.13;;;6.60;99.90;;;;;;5013413;28;20108;-70
2022/11/23 01:06:15;;;;;;;8.00;1.20;;;6.50;99.90;;;;;;5005638;28;20030;-70
2022/11/23 01:08:41;;;;;;;1.40;0.80;;;6.40;99.90;;;;;;5012005;28;20405;-70
2022/11/23 01:11:10;;;;;;;3.22;0.55;;;6.30;99.90;;;;;;5005729;28;20029;-70
2022/11/23 01:13:39;;;;;;;1.67;1.00;;;6.30;99.90;;;;;;5011770;28;20632;-70
2022/11/23 01:16:15;;;;;;;1.13;0.70;;;6.20;99.90;;;;;;5013564;28;20492;-70
2022/11/23 01:18:41;;;;;;;6.70;1.05;;;6.20;99.90;;;;;;5011915;28;20044;-70
2022/11/23 01:21:07;;;;;;;3.92;1.10;;;6.30;99.90;;;;;;5013379;28;20034;-70
2022/11/23 01:23:33;;;;;;;1.55;0.93;;;6.20;99.90;;;;;;5011245;28;20030;-70
2022/11/23 01:26:08;;;;;;;0.93;0.77;;;6.20;99.90;;;;;;5004764;28;20033;-69
2022/11/23 01:28:35;;;;;;;2.15;0.57;;;6.20;99.90;;;;;;5011849;28;20022;-70
2022/11/23 01:31:27;;;;;;;2.35;1.38;;;6.30;99.90;;;;;;5013519;28;20137;-69
2022/11/23 01:33:58;;;;;;;2.67;1.08;;;6.40;99.90;;;;;;5010680;28;20442;-70
2022/11/23 01:36:30;;;;;;;4.27;1.17;;;6.40;99.90;;;;;;5004838;28;20033;-70
2022/11/23 01:38:58;;;;;;;1.00;0.52;;;6.50;99.90;;;;;;5011587;28;20292;-70
2022/11/23 01:41:32;;;;;;;4.57;1.00;;;6.50;99.90;;;;;;4997159;28;20116;-70
2022/11/23 01:43:58;;;;;;;1.58;1.27;;;6.50;99.90;;;;;;5011217;28;20509;-70
2022/11/23 01:46:24;;;;;;;5.82;1.25;;;6.50;99.90;;;;;;5004838;28;20041;-70
2022/11/23 01:48:56;;;;;;;2.42;0.68;;;6.50;99.90;;;;;;5012549;28;20026;-70
2022/11/23 01:51:35;;;;;;;8.23;1.85;;;6.60;99.90;;;;;;5003793;28;20125;-70
2022/11/23 01:54:10;;;;;;;1.55;1.23;;;6.60;99.90;;;;;;4992473;28;20034;-70
2022/11/23 01:56:42;;;;;;;8.88;1.02;;;6.60;99.90;;;;;;4983490;28;20053;-70
2022/11/23 01:59:12;;;;;;;;;;;6.60;99.90;;;;;;4988279;28;20041;-70
2022/11/23 02:01:38;;;;;;;1.02;0.82;;;6.60;99.90;;;;;;5012296;28;19909;-70
2022/11/23 02:04:05;;;;;;;6.13;1.30;;;6.60;99.90;;;;;;4993479;28;20060;-70
2022/11/23 02:06:32;;;;;;;1.50;0.82;;;6.60;99.90;;;;;;4982979;28;20220;-70
2022/11/23 02:08:59;;;;;;;1.50;1.05;;;6.60;99.90;;;;;;4969933;28;20057;-70
2022/11/23 02:11:25;;;;;;;1.50;0.88;;;6.60;99.90;;;;;;4993772;28;20116;-69
2022/11/23 02:13:51;;;;;;;2.45;1.02;;;6.60;99.90;;;;;;5009913;28;20133;-70
2022/11/23 02:16:17;;;;;;;8.13;1.15;;;6.60;99.90;;;;;;5003114;28;20049;-70
2022/11/23 02:18:47;;;;;;;2.55;1.08;;;6.60;99.90;;;;;;5021924;23;20061;-72
2022/11/23 02:21:13;;;;;;;4.95;1.13;;;6.60;99.90;;;;;;5045239;28;20037;-72
2022/11/23 02:24:02;;;;;;;4.50;1.17;;;6.60;99.90;;;;;;5016394;28;20120;-72
2022/11/23 02:26:32;;;;;;;4.70;1.17;;;6.60;99.90;;;;;;5031479;28;20030;-73
2022/11/23 02:29:13;;;;;;;1.95;1.05;;;6.60;99.90;;;;;;5000538;28;20030;-73
2022/11/23 02:31:39;;;;;;;;;;;6.70;99.90;;;;;;4997959;28;20025;-73
2022/11/23 02:34:04;;;;;;;2.08;0.80;;;6.60;99.90;;;;;;5003019;28;19913;-73
2022/11/23 02:36:47;;;;;;;1.95;1.00;;;6.60;99.90;;;;;;5011940;28;20037;-73
2022/11/23 02:39:36;;;;;;;3.20;1.45;;;6.60;99.90;;;;;;5005999;28;20482;-73
2022/11/23 02:42:03;;;;;;;2.80;0.88;;;6.60;99.90;;;;;;4996721;28;20023;-71
2022/11/23 02:45:04;;;;;;;3.60;1.60;;;6.60;99.90;;;;;;5005517;28;20029;-73
2022/11/23 02:47:30;;;;;;;3.05;1.85;;;6.60;99.90;;;;;;4975466;28;20045;-73
2022/11/23 02:49:56;;;;;;;0.80;0.63;;;6.60;99.90;;;;;;5010573;28;20030;-72
2022/11/23 02:52:21;;;;;;;1.40;0.50;;;6.60;99.90;;;;;;5008105;28;20049;-71
2022/11/23 02:54:47;;;;;;;3.15;0.88;;;6.50;99.90;;;;;;4991592;28;20042;-72
2022/11/23 02:57:13;;;;;;;3.15;0.65;;;6.50;99.90;;;;;;5009045;28;20070;-72
2022/11/23 02:59:39;;;;;;;0.52;0.52;;;6.50;99.90;;;;;;5008133;28;20054;-72
2022/11/23 03:02:05;;;;;;;0.65;0.52;;;6.50;99.90;;;;;;5010383;28;20061;-72
2022/11/23 03:04:30;;;;;;;4.13;1.15;;;6.50;99.90;;;;;;5006368;28;20590;-73
2022/11/23 03:06:56;;;;;;;3.42;1.05;;;6.50;99.90;;;;;;5011655;28;20041;-72
2022/11/23 03:09:24;;;;;;;7.28;1.10;;;6.50;99.90;;;;;;5005375;28;20037;-72
2022/11/23 03:11:51;;;;;;;2.67;1.20;;;6.50;99.90;;;;;;5011587;28;20061;-72
2022/11/23 03:14:17;;;;;;;2.03;0.93;;;6.50;99.90;;;;;;5004079;28;20117;-72
2022/11/23 03:16:43;;;;;;;1.77;1.05;;;6.50;99.90;;;;;;5008754;28;20112;-72
2022/11/23 03:19:08;;;;;;;2.50;0.70;;;6.60;99.90;;;;;;5005104;28;20494;-73
2022/11/23 03:21:35;;;;;;;0.65;0.43;;;6.60;99.90;;;;;;5010043;28;20428;-72
2022/11/23 03:24:00;;;;;;;0.60;0.55;;;6.60;99.90;;;;;;5004238;28;20030;-72
2022/11/23 03:26:26;;;;;;;0.40;0.32;;;6.70;99.90;;;;;;5010336;28;20029;-72
2022/11/23 03:28:52;;;;;;;1.13;0.40;;;6.70;99.90;;;;;;5004318;28;20066;-72
2022/11/23 03:31:18;;;;;;;0.95;0.57;;;6.60;99.90;;;;;;5011135;28;20083;-73
2022/11/23 03:33:44;;;;;;;12.95;1.30;;;6.70;99.90;;;;;;4998327;28;20474;-72
2022/11/23 03:36:09;;;;;;;1.70;0.73;;;6.70;99.90;;;;;;5011027;28;20091;-72
2022/11/23 03:38:35;;;;;;;0.93;0.43;;;6.70;99.90;;;;;;5005093;28;20069;-72
2022/11/23 03:41:01;;;;;;;1.20;0.77;;;6.70;99.90;;;;;;5010901;28;20499;-72
2022/11/23 03:43:26;;;;;;;0.80;0.50;;;6.70;99.90;;;;;;5005062;28;20049;-72
2022/11/23 03:45:52;;;;;;;2.22;2.00;;;6.70;99.90;;;;;;5010870;28;20026;-73
2022/11/23 03:48:18;;;;;;;1.40;0.88;;;6.70;99.90;;;;;;5004276;28;20034;-73
2022/11/23 03:50:44;;;;;;;1.00;0.47;;;6.70;99.90;;;;;;5010969;28;20030;-73
2022/11/23 03:53:11;;;;;;;3.88;1.00;;;6.70;99.90;;;;;;5004820;28;20374;-73
2022/11/23 03:55:36;;;;;;;8.43;0.75;;;6.70;99.90;;;;;;5009749;28;20037;-72
2022/11/23 03:58:02;;;;;;;0.65;0.47;;;6.70;99.90;;;;;;5004258;28;20037;-72
2022/11/23 04:00:30;;;;;;;0.85;0.43;;;6.70;99.90;;;;;;5010847;28;20041;-72
2022/11/23 04:02:56;;;;;;;0.77;0.40;;;6.70;99.90;;;;;;5000073;28;20027;-73
2022/11/23 04:05:21;;;;;;;1.60;1.05;;;6.60;99.90;;;;;;5010809;28;20110;-72
2022/11/23 04:07:49;;;;;;;2.78;0.38;;;6.70;99.90;;;;;;5004860;28;20068;-73
2022/11/23 04:10:17;;;;;;;5.28;1.35;;;6.70;99.90;;;;;;5010757;28;20029;-72
2022/11/23 04:12:43;;;;;;;3.13;0.70;;;6.70;99.90;;;;;;5004810;28;20113;-72
2022/11/23 04:15:09;;;;;;;1.55;0.65;;;6.70;99.90;;;;;;5008144;28;20056;-72
2022/11/23 04:17:35;;;;;;;3.92;1.45;;;6.70;99.90;;;;;;5005565;28;20498;-72
2022/11/23 04:20:01;;;;;;;9.55;1.60;;;6.70;99.90;;;;;;5010508;28;20045;-72
2022/11/23 04:22:27;;;;;;;1.35;0.70;;;6.80;99.90;;;;;;5006436;28;20049;-72
2022/11/23 04:24:52;;;;;;;3.13;0.93;;;6.80;99.90;;;;;;5008805;28;20052;-72
2022/11/23 04:27:18;;;;;;;3.83;0.68;;;6.80;99.90;;;;;;5007873;28;20042;-72
2022/11/23 04:29:44;;;;;;;10.20;0.88;;;6.80;99.90;;;;;;5005749;28;20389;-72
2022/11/23 04:32:09;;;;;;;1.92;0.50;;;6.80;99.90;;;;;;4998334;28;20118;-72
2022/11/23 04:34:35;;;;;;;12.13;1.13;;;6.70;99.90;;;;;;4979535;28;20027;-72
2022/11/23 04:37:01;;;;;;;1.00;0.57;;;6.80;99.90;;;;;;4978458;28;20033;-72
2022/11/23 04:39:27;;;;;;;1.10;0.80;;;6.80;99.90;;;;;;4990585;28;20038;-72
2022/11/23 04:41:52;;;;;;;6.25;1.15;;;6.80;99.90;;;;;;5012432;28;20072;-72
2022/11/23 04:44:20;;;;;;;1.48;1.05;;;6.80;99.90;;;;;;5007621;28;20034;-72
2022/11/23 04:46:46;;;;;;;11.57;0.85;;;6.80;99.90;;;;;;5011428;28;20066;-72
2022/11/23 04:49:12;;;;;;;5.03;0.68;;;6.80;99.90;;;;;;5008552;28;20022;-72
2022/11/23 04:51:37;;;;;;;1.92;0.60;;;6.80;99.90;;;;;;4996912;28;20038;-72
2022/11/23 04:54:04;;;;;;;0.80;0.63;;;6.80;99.90;;;;;;5013214;28;20152;-73
2022/11/23 04:56:29;;;;;;;2.22;0.93;;;6.90;99.90;;;;;;4999541;28;20031;-72
2022/11/23 04:58:55;;;;;;;11.82;0.75;;;6.90;99.90;;;;;;5011385;28;20034;-72
2022/11/23 05:01:20;;;;;;;16.05;1.23;;;6.90;99.90;;;;;;5007074;28;20089;-72
2022/11/23 05:03:46;;;;;;;3.13;0.93;;;6.90;99.90;;;;;;5010873;28;20537;-72
2022/11/23 05:06:12;;;;;;;1.55;0.70;;;6.90;99.90;;;;;;5008369;28;20379;-72
2022/11/23 05:08:38;;;;;;;1.52;0.80;;;6.90;99.90;;;;;;5008616;28;20041;-72
2022/11/23 05:11:04;;;;;;;15.57;1.25;;;6.90;99.90;;;;;;5009032;28;20027;-72
2022/11/23 05:13:30;;;;;;;2.50;0.98;;;6.90;99.90;;;;;;5023757;28;20439;-72
2022/11/23 05:15:55;;;;;;;4.60;1.52;;;6.80;99.90;;;;;;4997083;28;20039;-72
2022/11/23 05:18:21;;;;;;;2.28;0.73;;;6.90;99.90;;;;;;5007292;28;20501;-71
2022/11/23 05:20:47;;;;;;;3.28;0.90;;;6.80;99.90;;;;;;5010612;28;20088;-72
2022/11/23 05:23:13;;;;;;;7.50;0.93;;;6.80;99.90;;;;;;4983621;28;20510;-72
2022/11/23 05:25:39;;;;;;;2.63;1.02;;;6.80;99.90;;;;;;4999986;28;20061;-72
2022/11/23 05:28:04;;;;;;;1.90;0.82;;;6.80;99.90;;;;;;4999259;28;20056;-73
2022/11/23 05:30:30;;;;;;;4.72;1.55;;;6.80;99.90;;;;;;4982338;28;20038;-73
2022/11/23 05:33:03;;;;;;;3.35;1.33;;;6.90;99.90;;;;;;4989031;28;20045;-73
2022/11/23 05:35:29;;;;;;;3.00;1.05;;;6.90;99.90;;;;;;5001710;28;20044;-72
2022/11/23 05:37:55;;;;;;;1.42;0.55;;;6.90;99.90;;;;;;4986891;28;20078;-72
2022/11/23 05:40:21;;;;;;;2.25;1.30;;;7.00;99.90;;;;;;5004160;28;20038;-73
2022/11/23 05:42:47;;;;;;;2.50;0.55;;;7.00;99.90;;;;;;4977159;28;20035;-73
2022/11/23 05:45:13;;;;;;;1.60;0.80;;;7.00;99.90;;;;;;4986533;28;20049;-73
2022/11/23 05:47:38;;;;;;;5.50;1.27;;;7.00;99.90;;;;;;4980709;28;20023;-72
2022/11/23 05:50:05;;;;;;;0.68;0.55;;;7.00;99.90;;;;;;4989055;28;20096;-73
2022/11/23 05:52:31;;;;;;;3.00;0.82;;;6.90;99.90;;;;;;4988484;28;20042;-73
2022/11/23 05:54:57;;;;;;;7.28;1.25;;;7.00;99.90;;;;;;4955788;28;20391;-73
2022/11/23 05:57:23;;;;;;;1.92;0.77;;;6.90;99.90;;;;;;4991746;28;20030;-72
2022/11/23 05:59:48;;;;;;;1.02;0.80;;;6.90;99.90;;;;;;4983211;28;20055;-72
2022/11/23 06:02:14;;;;;;;1.75;0.98;;;6.90;99.90;;;;;;4990731;28;20111;-72
2022/11/23 06:04:40;;;;;;;5.28;0.95;;;6.90;99.90;;;;;;4960306;28;20661;-73
2022/11/23 06:07:06;;;;;;;10.85;1.42;;;6.90;99.90;;;;;;4992163;28;20018;-72
2022/11/23 06:09:31;;;;;;;4.40;1.02;;;6.90;99.90;;;;;;4985065;28;20066;-72
2022/11/23 06:11:57;;;;;;;4.40;1.75;;;6.90;99.90;;;;;;4991248;28;20034;-72
2022/11/23 06:14:22;;;;;;;1.27;1.02;;;6.90;99.90;;;;;;4981208;28;20045;-73
2022/11/23 06:16:50;;;;;;;3.17;1.48;;;7.00;99.90;;;;;;4982138;28;20135;-72
2022/11/23 06:19:15;;;;;;;4.95;0.95;;;7.00;99.90;;;;;;4986786;28;20111;-73
2022/11/23 06:21:41;;;;;;;2.58;1.20;;;7.00;99.90;;;;;;4986088;28;20042;-73
2022/11/23 06:24:07;;;;;;;2.45;0.73;;;7.10;99.90;;;;;;4987436;28;20519;-73
2022/11/23 06:26:33;;;;;;;6.80;0.88;;;7.10;99.90;;;;;;5003147;28;20023;-72
2022/11/23 06:28:58;;;;;;;1.77;1.02;;;7.10;99.90;;;;;;4988827;28;20027;-73
2022/11/23 06:31:24;;;;;;;3.75;1.33;;;7.10;99.90;;;;;;4986492;28;20093;-72
2022/11/23 06:33:51;;;;;;;6.80;1.10;;;7.00;99.90;;;;;;4980284;28;20038;-75
2022/11/23 06:36:17;;;;;;;2.85;1.75;;;7.10;99.90;;;;;;4984875;28;20125;-73
2022/11/23 06:38:42;;;;;;;6.80;0.95;;;7.10;99.90;;;;;;4987397;28;20117;-72
2022/11/23 06:41:08;;;;;;;2.25;0.80;;;7.10;99.90;;;;;;4983714;28;20034;-72
2022/11/23 06:43:34;;;;;;;2.55;1.30;;;7.00;99.90;;;;;;4991299;28;20117;-70
2022/11/23 06:46:04;;;;;;;4.47;1.13;;;7.00;99.90;;;;;;4983843;28;20026;-71
2022/11/23 06:48:30;;;;;;;6.73;2.00;;;7.00;99.90;;;;;;4991663;28;20433;-70
2022/11/23 06:50:59;;;;;;;7.07;0.50;;;6.90;99.90;;;;;;4987500;28;20297;-70
2022/11/23 06:53:25;;;;;;;2.50;0.60;;;6.90;99.90;;;;;;4988090;28;20049;-70
2022/11/23 06:55:52;;;;;;;1.13;0.77;;;6.90;99.90;;;;;;4986077;28;20062;-70
2022/11/23 06:58:18;;;;;;;17.98;2.08;;;6.90;99.90;;;;;;4991200;28;20042;-70
2022/11/23 07:00:43;;;;;;;7.22;1.63;;;6.80;99.90;;;;;;4984761;28;20039;-71
2022/11/23 07:03:23;;;;;;;4.45;1.27;;;6.80;99.90;;;;;;4983500;28;20069;-70
2022/11/23 07:05:49;;;;;;;4.15;1.42;;;6.70;99.90;;;;;;4986071;28;20035;-71
2022/11/23 07:08:15;;;;;;;4.68;1.80;;;6.70;99.90;;;;;;4991318;28;20033;-71
2022/11/23 07:10:41;;;;;;;1.33;0.80;;;6.60;99.90;;;;;;4986777;28;20038;-71
2022/11/23 07:13:09;;;;;;;3.22;2.03;;;6.50;99.90;;;;;;4982740;28;20440;-71
2022/11/23 07:15:36;;;;;;;1.85;0.52;;;6.50;99.90;;;;;;4982575;28;20031;-71
2022/11/23 07:18:03;;;;;;;1.25;0.63;;;6.50;99.90;;;;;;4977757;28;20062;-71
2022/11/23 07:20:29;;;;;;;2.63;0.80;;;6.40;99.90;;;;;;5000635;28;20053;-69
2022/11/23 07:23:05;;;;;;;3.72;0.90;;;6.40;99.90;;;;;;4977214;28;20730;-70
2022/11/23 07:25:34;;;;;;;1.83;1.50;;;6.20;99.90;;;;;;4985535;28;20077;-73
2022/11/23 07:28:02;;;;;;;0.77;0.40;;;6.20;99.90;;;;;;4962952;28;20034;-75
2022/11/23 07:30:30;;;;;;;1.58;0.77;;;6.20;99.90;;;;;;4984353;28;20038;-72
2022/11/23 07:33:08;;;;;;;4.32;1.17;;;6.20;99.90;;;;;;4973480;28;20069;-70
2022/11/23 07:35:36;;;;;;;1.45;0.70;;;6.20;99.90;;;;;;4985642;28;20038;-71
2022/11/23 07:38:03;;;;;;;4.32;1.17;;;6.20;99.90;;;;;;4990911;28;20069;-71
2022/11/23 07:40:29;;;;;;;9.98;1.77;;;6.20;99.90;;;;;;4988844;28;20033;-70
2022/11/23 07:43:02;;;;;;;0.95;0.63;;;6.20;99.90;;;;;;4989404;28;20038;-71
2022/11/23 07:45:29;;;;;;;2.83;0.68;;;6.20;99.90;;;;;;4987356;28;20031;-70
2022/11/23 07:48:03;;;;;;;3.85;1.13;;;6.20;99.90;;;;;;4991061;28;20038;-70
2022/11/23 07:50:29;;;;;;;5.57;0.55;;;6.20;99.90;;;;;;4975377;28;20030;-71
2022/11/23 07:52:55;;;;;;;4.32;1.08;;;6.30;99.90;;;;;;4976127;28;20126;-71
2022/11/23 07:55:22;;;;;;;7.35;1.30;;;6.30;99.90;;;;;;4983404;28;20065;-72
2022/11/23 07:57:52;;;;;;;2.63;1.08;;;6.40;99.90;;;;;;4991045;28;20494;-76
2022/11/23 08:00:19;;;;;;;4.22;1.33;;;6.40;99.90;;;;;;4980744;28;20039;-81
2022/11/23 08:02:45;;;;;;;3.60;1.95;;;6.40;99.90;;;;;;4987838;28;20037;-77
2022/11/23 08:05:10;;;;;;;1.73;1.15;;;6.40;99.90;;;;;;4987503;28;20018;-77
2022/11/23 08:07:36;;;;;;;4.60;1.58;;;6.50;99.90;;;;;;4989461;28;20035;-76
2022/11/23 08:10:03;;;;;;;7.43;1.63;;;6.50;99.90;;;;;;4988599;28;20034;-77
2022/11/23 08:12:28;;;;;;;4.10;1.20;;;6.50;99.90;;;;;;4972378;28;20031;-75
2022/11/23 08:14:54;;;;;;;9.65;2.38;;;6.50;99.90;;;;;;4984408;28;20037;-75
2022/11/23 08:19:50;;;;;;;6.67;1.60;;;6.50;99.90;;;;;;4990880;28;20077;-70
2022/11/23 08:22:16;;;;;;;4.15;1.02;;;6.60;99.90;;;;;;4985703;28;20463;-70
2022/11/23 08:24:42;;;;;;;0.98;0.88;;;6.60;99.90;;;;;;4990634;28;20034;-70
2022/11/23 08:27:07;;;;;;;6.75;1.30;;;6.60;99.90;;;;;;4994310;28;20042;-70
2022/11/23 08:29:33;;;;;;;8.18;1.25;;;6.60;99.90;;;;;;4989444;28;20034;-69
2022/11/23 08:31:59;;;;;;;2.90;1.50;;;6.70;99.90;;;;;;4993979;28;20067;-69
2022/11/23 08:34:24;;;;;;;3.75;1.30;;;6.80;99.90;;;;;;4990118;28;20486;-70
2022/11/23 08:36:50;;;;;;;3.08;1.50;;;6.80;99.90;;;;;;4992688;28;20030;-70
2022/11/23 08:39:18;;;;;;;5.20;1.48;;;6.80;99.90;;;;;;4989516;28;20032;-69
2022/11/23 08:41:44;;;;;;;4.47;1.15;;;6.90;99.90;;;;;;4993936;28;20115;-70
2022/11/23 08:44:11;;;;;;;8.82;1.27;;;7.00;99.90;;;;;;4989052;28;20037;-70
2022/11/23 08:46:37;;;;;;;5.88;2.33;;;7.00;99.90;;;;;;4993721;28;20026;-70
2022/11/23 08:49:05;;;;;;;9.85;1.60;;;7.10;99.90;;;;;;4987735;28;20054;-70
2022/11/23 08:51:30;;;;;;;6.45;1.38;;;7.10;99.90;;;;;;4990457;28;20024;-69
2022/11/23 08:53:56;;;;;;;9.82;1.88;;;7.20;99.90;;;;;;4977735;28;20030;-69
2022/11/23 08:56:23;;;;;;;11.38;2.10;;;7.30;99.90;;;;;;4992572;28;20041;-69
2022/11/23 08:58:48;;;;;;;11.40;2.25;;;7.30;99.90;;;;;;4987661;28;20046;-70
2022/11/23 09:01:16;;;;;;;6.43;3.42;;;7.40;99.90;;;;;;4992346;28;20084;-70
2022/11/23 09:03:42;;;;;;;6.38;1.75;;;7.50;99.90;;;;;;4988018;28;20035;-70
2022/11/23 09:06:09;;;;;;;3.65;1.48;;;7.50;99.90;;;;;;4971686;28;20027;-69
2022/11/23 09:08:36;;;;;;;1.10;0.77;;;7.70;99.90;;;;;;4961770;28;20027;-69
2022/11/23 09:11:09;;;;;;;3.17;0.93;;;7.80;99.90;;;;;;4992815;28;20049;-70
2022/11/23 09:13:36;;;;;;;2.67;1.05;;;7.80;99.90;;;;;;4974542;28;20434;-69
2022/11/23 09:16:03;;;;;;;1.30;1.00;;;7.90;99.90;;;;;;4993140;28;20034;-69
2022/11/23 09:18:30;;;;;;;11.00;1.17;;;8.00;99.90;;;;;;4980198;28;20042;-70
2022/11/23 09:20:56;;;;;;;2.17;0.77;;;8.00;99.90;;;;;;4970831;28;20026;-71
2022/11/23 09:23:22;;;;;;;1.58;0.80;;;8.10;99.90;;;;;;4966646;28;20038;-69
2022/11/23 09:25:49;;;;;;;8.68;1.75;;;8.20;99.90;;;;;;4970451;28;20066;-70
2022/11/23 09:28:18;;;;;;;2.45;1.10;;;8.30;99.90;;;;;;4970625;28;20023;-72
2022/11/23 09:30:46;;;;;;;3.95;1.27;;;8.50;99.90;;;;;;4980190;28;20797;-69
2022/11/23 09:33:12;;;;;;;4.07;1.25;;;8.60;99.90;;;;;;4988257;28;20042;-67
2022/11/23 09:35:38;;;;;;;3.47;1.10;;;8.70;99.90;;;;;;5008090;28;20529;-67
2022/11/23 09:38:03;;;;;;;6.32;1.50;;;8.90;99.90;;;;;;4987192;28;20038;-69
2022/11/23 09:40:39;;;;;;;9.50;1.83;;;9.10;99.90;;;;;;4984486;28;20043;-68
2022/11/23 09:43:29;;;;;;;3.05;1.65;;;9.40;99.90;;;;;;4960699;28;20035;-68
2022/11/23 09:46:00;;;;;;;4.15;1.20;;;10.00;99.90;;;;;;4969515;28;20434;-69
2022/11/23 09:48:46;;;;;;;0.93;0.70;;;10.90;99.90;;;;;;4975743;28;20040;-69
2022/11/23 09:51:21;;;;;;;3.58;1.15;;;12.50;99.90;;;;;;4980988;28;20062;-68
2022/11/23 09:53:57;;;;;;;2.03;0.63;;;13.70;99.90;;;;;;4987214;28;20064;-68
2022/11/23 09:56:28;;;;;;;2.63;0.98;;;13.40;99.90;;;;;;4981162;28;20077;-69
2022/11/23 09:58:58;;;;;;;7.47;0.85;;;13.60;99.90;;;;;;4992520;28;20038;-69
2022/11/23 10:01:26;;;;;;;1.50;0.63;;;13.90;99.90;;;;;;4981081;28;20038;-69
2022/11/23 10:03:52;;;;;;;6.10;1.13;;;13.90;99.90;;;;;;4990746;28;20152;-69
2022/11/23 10:06:28;;;;;;;6.25;2.33;;;14.70;99.90;;;;;;4982044;28;20030;-68
2022/11/23 10:08:56;;;;;;;1.25;0.73;;;14.30;99.90;;;;;;4992406;28;20324;-69
2022/11/23 10:11:50;;;;;;;1.45;1.08;;;14.70;99.90;;;;;;4981575;28;20038;-68
2022/11/23 10:14:18;;;;;;;2.47;0.65;;;12.70;99.90;;;;;;4952422;28;20039;-69
2022/11/23 10:17:32;;;;;;;2.95;0.73;;;12.70;99.90;;;;;;4987140;28;20105;-68
2022/11/23 10:20:28;;;;;;;1.40;0.55;;;12.70;99.90;;;;;;4960692;28;20178;-69
2022/11/23 10:22:59;;;;;;;1.23;0.50;;;13.30;99.90;;;;;;4988601;28;20034;-69
2022/11/23 10:25:32;;;;;;;5.85;1.17;;;14.40;99.90;;;;;;4981623;28;20042;-69
2022/11/23 10:28:05;;;;;;;9.15;1.65;;;13.20;99.90;;;;;;4990681;28;20154;-69
2022/11/23 10:30:31;;;;;;;8.38;0.80;;;13.10;99.90;;;;;;4980178;28;20038;-69
2022/11/23 10:33:09;;;;;;;7.10;1.23;;;13.80;99.90;;;;;;4990332;28;20042;-69
2022/11/23 10:35:37;;;;;;;5.45;1.00;;;13.90;99.90;;;;;;4979850;28;20046;-69
2022/11/23 10:38:18;;;;;;;2.10;0.95;;;14.30;99.90;;;;;;4991713;28;20041;-69
2022/11/23 10:41:09;;;;;;;4.30;1.15;;;15.10;99.90;;;;;;4979917;28;20034;-69
2022/11/23 10:44:04;;;;;;;4.43;1.02;;;15.50;98.00;;;;;;4974571;28;20109;-69
2022/11/23 10:46:33;;;;;;;2.13;0.60;;;13.30;99.90;;;;;;4982990;28;20483;-69
2022/11/23 10:49:29;;;;;;;2.40;0.77;;;13.80;99.90;;;;;;4991006;28;20030;-68
2022/11/23 10:52:23;;;;;;;1.67;0.77;;;12.80;99.90;;;;;;4968851;28;20031;-69
2022/11/23 10:54:56;;;;;;;4.72;1.17;;;12.80;99.90;;;;;;4979384;28;20479;-69
2022/11/23 10:57:41;;;;;;;5.57;2.08;;;12.50;99.90;;;;;;4983237;28;20490;-69
2022/11/23 11:00:13;;;;;;;5.53;0.80;;;13.00;99.90;;;;;;4968546;28;20040;-69
2022/11/23 11:02:43;;;;;;;2.92;0.45;;;13.00;99.90;;;;;;4990558;28;20047;-69
2022/11/23 11:05:13;;;;;;;5.68;1.15;;;13.70;99.90;;;;;;4971132;28;20846;-70
2022/11/23 11:07:39;;;;;;;2.70;0.68;;;14.70;99.90;;;;;;4990981;28;20482;-70
2022/11/23 11:10:25;;;;;;;2.22;0.47;;;14.70;99.80;;;;;;4980326;28;20031;-70
2022/11/23 11:12:51;;;;;;;1.35;0.60;;;15.30;99.60;;;;;;4989374;28;20487;-70
2022/11/23 11:15:17;;;;;;;4.13;0.68;;;14.80;99.70;;;;;;4974007;28;20050;-70
2022/11/23 11:17:43;;;;;;;2.42;0.80;;;15.50;99.00;;;;;;4988024;28;20131;-70
2022/11/23 11:20:26;;;;;;;4.05;1.10;;;15.30;98.80;;;;;;4956383;28;20479;-70
2022/11/23 11:22:54;;;;;;;1.98;0.73;;;16.70;96.70;;;;;;4978597;28;20038;-69
2022/11/23 11:25:38;;;;;;;6.55;0.88;;;17.40;94.90;;;;;;4958878;28;20035;-71
2022/11/23 11:28:36;;;;;;;2.45;0.80;;;17.20;95.00;;;;;;4973698;28;20035;-70
2022/11/23 11:31:47;;;;;;;2.15;0.80;;;16.80;94.30;;;;;;4976870;28;20030;-70
2022/11/23 11:34:31;;;;;;;2.70;0.70;;;15.70;95.50;;;;;;4955331;28;20038;-69
2022/11/23 11:37:10;;;;;;;1.52;0.50;;;16.30;94.90;;;;;;4980372;28;20049;-69
2022/11/23 11:39:52;;;;;;;2.58;1.30;;;16.70;94.50;;;;;;4963367;28;20046;-70
2022/11/23 11:42:33;;;;;;;4.57;1.05;;;16.50;94.60;;;;;;4976834;28;20160;-69
2022/11/23 11:45:02;;;;;;;7.47;1.25;;;18.10;93.00;;;;;;4975105;28;20060;-68
2022/11/23 11:47:44;;;;;;;1.55;0.80;;;18.40;91.80;;;;;;4991630;28;20451;-69
2022/11/23 11:50:28;;;;;;;1.60;0.80;;;17.30;92.70;;;;;;4978481;28;20041;-68
2022/11/23 11:53:12;;;;;;;1.77;0.60;;;17.50;92.80;;;;;;4966940;28;20027;-69
2022/11/23 11:56:02;;;;;;;1.60;0.50;;;15.30;96.40;;;;;;4981795;28;20038;-69
2022/11/23 11:58:29;;;;;;;5.72;0.55;;;15.30;96.50;;;;;;4983920;28;20038;-68
2022/11/23 12:01:30;;;;;;;1.25;0.85;;;14.80;97.80;;;;;;4980384;28;20423;-69
2022/11/23 12:04:06;;;;;;;2.33;0.80;;;14.10;99.70;;;;;;4986168;28;20031;-69
2022/11/23 12:06:52;;;;;;;1.73;0.50;;;14.20;99.90;;;;;;4988731;28;20026;-70
2022/11/23 12:09:30;;;;;;;2.22;0.68;;;15.10;99.00;;;;;;4956213;28;20046;-69
2022/11/23 12:11:57;;;;;;;2.80;1.25;;;14.70;98.80;;;;;;4975571;28;20544;-69
2022/11/23 12:14:23;;;;;;;3.65;0.80;;;13.80;99.90;;;;;;4982295;28;20032;-68
2022/11/23 12:17:15;;;;;;;1.50;0.70;;;14.60;99.50;;;;;;4989212;28;20040;-70
2022/11/23 12:20:05;;;;;;;1.48;0.60;;;14.60;98.90;;;;;;4979082;28;20120;-71
2022/11/23 12:23:02;;;;;;;1.30;0.77;;;14.10;99.40;;;;;;4990790;28;20134;-69
2022/11/23 12:25:37;;;;;;;2.63;0.60;;;14.00;99.60;;;;;;4979009;28;20031;-69
2022/11/23 12:28:30;;;;;;;1.77;0.55;;;13.90;99.90;;;;;;4978112;28;20026;-68
2022/11/23 12:31:42;;;;;;;1.20;0.60;;;13.80;99.90;;;;;;4965320;28;20031;-71
2022/11/23 12:34:33;;;;;;;6.03;0.65;;;13.90;99.90;;;;;;4977871;28;20077;-69
2022/11/23 12:37:44;;;;;;;1.83;0.75;;;13.70;99.90;;;;;;4981493;28;20117;-70
2022/11/23 12:40:38;;;;;;;2.88;0.77;;;13.90;99.90;;;;;;4954533;28;20031;-71
2022/11/23 12:43:13;;;;;;;1.48;0.55;;;13.70;99.90;;;;;;4977729;28;20036;-70
2022/11/23 12:46:19;;;;;;;3.70;0.98;;;13.40;99.90;;;;;;4980173;28;20081;-70
2022/11/23 12:49:08;;;;;;;4.97;0.95;;;13.40;99.90;;;;;;4976795;28;20038;-70
2022/11/23 12:52:14;;;;;;;3.05;1.10;;;13.50;99.90;;;;;;4967842;28;20034;-71
2022/11/23 12:55:13;;;;;;;4.45;0.90;;;13.80;99.90;;;;;;4979364;28;20040;-70
2022/11/23 12:58:03;;;;;;;1.35;0.60;;;13.60;99.90;;;;;;4981723;28;20494;-70
2022/11/23 13:00:44;;;;;;;1.13;0.85;;;13.70;99.90;;;;;;4982833;28;20115;-71
2022/11/23 13:03:48;;;;;;;2.08;0.65;;;13.80;99.90;;;;;;4977854;28;20080;-71
2022/11/23 13:06:31;;;;;;;2.28;0.95;;;13.60;99.90;;;;;;4979849;28;20040;-70
2022/11/23 13:09:25;;;;;;;2.67;0.35;;;13.40;99.90;;;;;;4993473;28;20504;-71
2022/11/23 13:12:12;;;;;;;0.85;0.35;;;13.30;99.90;;;;;;4979791;28;20035;-70
2022/11/23 13:15:09;;;;;;;2.50;0.43;;;13.60;99.90;;;;;;4993223;28;20107;-70
2022/11/23 13:17:58;;;;;;;2.22;0.57;;;13.40;99.90;;;;;;4985736;28;20041;-70
2022/11/23 13:20:55;;;;;;;2.70;0.60;;;13.80;99.90;;;;;;4954482;28;20042;-71